createdAt,value
2019-04-27T00:01:48.477Z,58.35
2019-04-27T00:04:25.320Z,56.50
2019-04-27T00:06:56.068Z,57.20
2019-04-27T00:09:43.101Z,56.37
2019-04-27T00:12:16.411Z,59.70
2019-04-27T00:14:44.099Z,56.53
2019-04-27T00:17:40.439Z,57.35
2019-04-27T00:19:55.779Z,55.92
2019-04-27T00:22:33.576Z,56.45
2019-04-27T00:25:03.503Z,56.45
2019-04-27T00:27:33.537Z,57.53
2019-04-27T00:30:05.855Z,56.83
2019-04-27T00:32:34.282Z,57.03
2019-04-27T00:35:03.748Z,58.33
2019-04-27T00:37:36.637Z,56.70
2019-04-27T00:40:14.771Z,57.95
2019-04-27T00:42:45.724Z,57.27
2019-04-27T00:45:16.765Z,57.48
2019-04-27T00:47:56.590Z,56.20
2019-04-27T00:50:16.668Z,53.15
2019-04-27T00:52:45.631Z,55.17
2019-04-27T00:55:14.045Z,53.92
2019-04-27T00:58:00.398Z,57.30
2019-04-27T01:00:33.747Z,58.05
2019-04-27T01:03:03.968Z,56.50
2019-04-27T01:05:33.766Z,56.48
2019-04-27T01:08:03.820Z,60.30
2019-04-27T01:10:33.450Z,60.85
2019-04-27T01:13:05.821Z,60.78
2019-04-27T01:15:34.394Z,58.10
2019-04-27T01:18:11.979Z,58.70
2019-04-27T01:20:32.989Z,61.10
2019-04-27T01:23:01.619Z,61.68
2019-04-27T01:25:31.681Z,63.50
2019-04-27T01:28:18.614Z,62.95
2019-04-27T01:30:49.041Z,61.28
2019-04-27T01:33:17.491Z,60.28
2019-04-27T01:35:45.973Z,61.10
2019-04-27T01:38:14.401Z,64.65
2019-04-27T01:40:42.811Z,64.12
2019-04-27T01:43:11.258Z,65.32
2019-04-27T01:45:43.623Z,63.13
2019-04-27T01:48:23.623Z,61.77
2019-04-27T01:50:47.097Z,61.70
2019-04-27T01:53:15.638Z,61.55
2019-04-27T01:55:44.050Z,60.73
2019-04-27T01:58:12.586Z,60.85
2019-04-27T02:01:01.262Z,63.00
2019-04-27T02:03:33.279Z,61.92
2019-04-27T02:06:02.083Z,64.17
2019-04-27T02:08:30.565Z,64.58
2019-04-27T02:10:59.489Z,65.87
2019-04-27T02:13:29.036Z,64.20
2019-04-27T02:15:58.846Z,64.27
2019-04-27T02:18:35.611Z,64.58
2019-04-27T02:20:59.156Z,63.23
2019-04-27T02:23:29.304Z,61.42
2019-04-27T02:25:58.598Z,65.32
2019-04-27T02:28:29.494Z,61.92
2019-04-27T02:31:19.555Z,65.37
2019-04-27T02:33:52.766Z,63.87
2019-04-27T02:36:21.173Z,64.97
2019-04-27T02:38:50.165Z,62.43
2019-04-27T02:41:19.919Z,64.00
2019-04-27T02:43:50.177Z,65.03
2019-04-27T02:46:20.174Z,63.93
2019-04-27T02:48:59.658Z,64.62
2019-04-27T02:51:42.464Z,63.83
2019-04-27T02:54:12.052Z,63.52
2019-04-27T02:56:40.557Z,62.75
2019-04-27T02:59:11.879Z,65.78
2019-04-27T03:01:50.300Z,63.78
2019-04-27T03:04:20.492Z,61.40
2019-04-27T03:06:50.080Z,60.78
2019-04-27T03:09:20.510Z,62.53
2019-04-27T03:11:49.961Z,58.00
2019-04-27T03:14:34.932Z,60.58
2019-04-27T03:17:00.169Z,60.12
2019-04-27T03:19:30.047Z,59.90
2019-04-27T03:22:00.340Z,59.33
2019-04-27T03:24:46.582Z,59.95
2019-04-27T03:27:16.644Z,57.08
2019-04-27T03:29:45.302Z,59.55
2019-04-27T03:32:13.907Z,59.63
2019-04-27T03:34:42.344Z,57.90
2019-04-27T03:37:10.955Z,57.70
2019-04-27T03:39:39.860Z,58.33
2019-04-27T03:42:10.467Z,60.92
2019-04-27T03:44:39.767Z,58.92
2019-04-27T03:47:10.023Z,58.20
2019-04-27T03:49:41.587Z,61.13
2019-04-27T03:52:14.445Z,59.40
2019-04-27T03:55:00.653Z,64.27
2019-04-27T03:57:33.268Z,60.98
2019-04-27T04:00:03.385Z,61.88
2019-04-27T04:02:31.806Z,57.00
2019-04-27T04:05:04.102Z,61.85
2019-04-27T04:07:32.515Z,57.23
2019-04-27T04:10:00.930Z,60.70
2019-04-27T04:12:36.072Z,57.80
2019-04-27T04:15:10.007Z,57.88
2019-04-27T04:17:40.250Z,58.15
2019-04-27T04:20:10.206Z,57.15
2019-04-27T04:22:40.357Z,59.80
2019-04-27T04:25:10.703Z,60.80
2019-04-27T04:27:42.813Z,60.28
2019-04-27T04:30:12.432Z,63.68
2019-04-27T04:32:41.123Z,62.05
2019-04-27T04:35:21.603Z,62.88
2019-04-27T04:37:52.774Z,62.20
2019-04-27T04:40:25.250Z,66.62
2019-04-27T04:42:55.380Z,66.60
2019-04-27T04:45:25.532Z,64.07
2019-04-27T04:47:55.660Z,66.57
2019-04-27T04:50:30.248Z,63.78
2019-04-27T04:53:00.143Z,63.38
2019-04-27T04:55:30.476Z,63.52
2019-04-27T04:57:59.105Z,65.87
2019-04-27T05:00:29.861Z,65.30
2019-04-27T05:02:59.693Z,66.67
2019-04-27T05:05:29.315Z,68.85
2019-04-27T05:08:00.769Z,65.32
2019-04-27T05:10:28.795Z,62.93
2019-04-27T05:12:59.077Z,63.65
2019-04-27T05:15:29.317Z,63.55
2019-04-27T05:17:59.192Z,62.60
2019-04-27T05:20:32.722Z,61.30
2019-04-27T05:23:01.132Z,62.33
2019-04-27T05:25:30.502Z,62.75
2019-04-27T05:27:59.675Z,63.95
2019-04-27T05:30:28.708Z,63.05
2019-04-27T05:32:58.581Z,62.60
2019-04-27T05:35:27.114Z,60.10
2019-04-27T05:37:55.542Z,63.65
2019-04-27T05:40:24.019Z,57.80
2019-04-27T05:42:56.244Z,58.92
2019-04-27T05:45:57.770Z,60.20
2019-04-27T05:48:30.756Z,60.47
2019-04-27T05:51:04.977Z,59.33
2019-04-27T05:53:34.459Z,58.00
2019-04-27T05:56:05.982Z,59.63
2019-04-27T05:58:34.562Z,58.02
2019-04-27T06:01:02.968Z,61.70
2019-04-27T06:03:31.457Z,59.65
2019-04-27T06:06:15.682Z,59.23
2019-04-27T06:08:49.512Z,56.65
2019-04-27T06:11:19.532Z,57.93
2019-04-27T06:13:49.252Z,55.92
2019-04-27T06:16:19.504Z,54.37
2019-04-27T06:18:49.360Z,53.95
2019-04-27T06:21:19.427Z,56.60
2019-04-27T06:23:48.808Z,57.50
2019-04-27T06:26:17.288Z,54.83
2019-04-27T06:28:45.744Z,51.23
2019-04-27T06:31:15.219Z,51.10
2019-04-27T06:33:43.671Z,50.08
2019-04-27T06:36:14.593Z,50.58
2019-04-27T06:38:43.032Z,46.65
2019-04-27T06:41:11.433Z,44.55
2019-04-27T06:43:41.838Z,42.80
2019-04-27T06:46:10.273Z,44.98
2019-04-27T06:48:39.459Z,40.95
2019-04-27T06:51:09.684Z,39.85
2019-04-27T06:53:39.443Z,39.48
2019-04-27T06:56:08.947Z,40.92
2019-04-27T06:58:38.928Z,37.55
2019-04-27T07:01:10.754Z,35.80
2019-04-27T07:03:39.553Z,38.15
2019-04-27T07:06:08.855Z,35.40
2019-04-27T07:08:37.460Z,34.90
2019-04-27T07:11:05.982Z,33.78
2019-04-27T07:13:34.388Z,33.08
2019-04-27T07:16:03.098Z,34.10
2019-04-27T07:18:35.363Z,32.78
2019-04-27T07:23:33.314Z,29.48
2019-04-27T07:26:01.847Z,31.07
2019-04-27T07:28:34.049Z,30.97
2019-04-27T07:33:31.185Z,29.72
2019-04-27T07:35:59.639Z,31.75
2019-04-27T07:38:29.364Z,29.97
2019-04-27T07:40:58.693Z,28.92
2019-04-27T07:43:39.654Z,29.87
2019-04-27T07:46:08.880Z,29.42
2019-04-27T07:48:41.791Z,28.32
2019-04-27T07:51:10.210Z,25.12
2019-04-27T07:53:42.298Z,24.77
2019-04-27T07:58:39.653Z,24.60
2019-04-27T08:01:09.294Z,24.92
2019-04-27T08:03:39.045Z,23.75
2019-04-27T08:06:08.476Z,23.94
2019-04-27T08:08:39.651Z,25.08
2019-04-27T08:11:08.852Z,24.23
2019-04-27T08:13:39.349Z,24.77
2019-04-27T08:16:08.681Z,24.07
2019-04-27T08:18:37.305Z,22.85
2019-04-27T08:21:05.737Z,21.90
2019-04-27T08:23:34.141Z,26.55
2019-04-27T08:26:04.258Z,24.65
2019-04-27T08:28:34.333Z,24.67
2019-04-27T08:31:16.487Z,24.23
2019-04-27T08:33:44.914Z,24.32
2019-04-27T08:36:14.497Z,24.70
2019-04-27T08:38:42.930Z,24.92
2019-04-27T08:41:15.382Z,24.40
2019-04-27T08:43:43.787Z,23.75
2019-04-27T08:46:12.261Z,23.35
2019-04-27T08:48:40.722Z,24.43
2019-04-27T08:51:10.131Z,24.95
2019-04-27T08:53:39.754Z,25.77
2019-04-27T08:56:09.384Z,23.80
2019-04-27T08:58:38.611Z,23.65
2019-04-27T09:01:10.362Z,23.26
2019-04-27T09:03:39.503Z,23.50
2019-04-27T09:06:10.646Z,20.65
2019-04-27T09:08:41.433Z,23.98
2019-04-27T09:11:18.669Z,21.70
2019-04-27T09:13:53.221Z,22.37
2019-04-27T09:16:28.837Z,21.33
2019-04-27T09:18:59.735Z,15.60
2019-04-27T09:21:30.988Z,11.57
2019-04-27T09:23:59.631Z,10.82
2019-04-27T09:26:28.727Z,11.10
2019-04-27T09:28:57.405Z,11.50
2019-04-27T09:31:25.892Z,9.63
2019-04-27T09:33:55.009Z,8.55
2019-04-27T09:36:26.013Z,8.10
2019-04-27T09:38:56.455Z,7.70
2019-04-27T09:41:26.298Z,8.07
2019-04-27T09:44:10.492Z,7.78
2019-04-27T09:46:40.458Z,7.35
2019-04-27T09:49:20.260Z,7.62
2019-04-27T09:51:49.754Z,7.10
2019-04-27T09:54:18.344Z,7.12
2019-04-27T09:56:47.046Z,5.80
2019-04-27T09:59:16.715Z,7.12
2019-04-27T10:01:47.981Z,6.30
2019-04-27T10:04:17.684Z,4.80
2019-04-27T10:06:48.589Z,4.62
2019-04-27T10:09:16.445Z,4.55
2019-04-27T10:11:47.197Z,5.08
2019-04-27T10:14:16.352Z,4.75
2019-04-27T10:16:46.738Z,4.70
2019-04-27T10:19:27.958Z,4.33
2019-04-27T10:21:46.753Z,4.22
2019-04-27T10:24:16.311Z,5.42
2019-04-27T10:26:44.764Z,4.90
2019-04-27T10:29:13.257Z,5.40
2019-04-27T10:31:41.685Z,5.70
2019-04-27T10:34:11.215Z,4.47
2019-04-27T10:36:46.084Z,4.17
2019-04-27T10:39:17.191Z,3.95
2019-04-27T10:41:46.346Z,3.95
2019-04-27T10:44:16.357Z,4.53
2019-04-27T10:46:44.761Z,4.33
2019-04-27T10:49:13.173Z,3.85
2019-04-27T10:51:41.606Z,2.45
2019-04-27T10:54:10.025Z,2.75
2019-04-27T10:56:42.322Z,2.80
2019-04-27T11:01:39.378Z,3.37
2019-04-27T11:04:15.958Z,3.37
2019-04-27T11:06:46.683Z,2.40
2019-04-27T11:09:16.306Z,2.47
2019-04-27T11:11:46.380Z,2.47
2019-04-27T11:14:16.010Z,2.22
2019-04-27T11:16:45.976Z,2.60
2019-04-27T11:19:16.725Z,2.30
2019-04-27T11:21:55.049Z,1.98
2019-04-27T11:24:25.843Z,1.30
2019-04-27T11:26:56.804Z,1.25
2019-04-27T11:29:25.698Z,1.80
2019-04-27T11:32:05.807Z,2.22
2019-04-27T11:34:52.192Z,1.55
2019-04-27T11:37:23.387Z,1.30
2019-04-27T11:39:51.857Z,1.30
2019-04-27T11:42:20.266Z,1.37
2019-04-27T11:44:55.429Z,1.20
2019-04-27T11:47:23.222Z,1.10
2019-04-27T11:49:51.632Z,1.35
2019-04-27T11:52:20.055Z,1.07
2019-04-27T11:54:48.479Z,1.30
2019-04-27T11:57:18.143Z,1.37
2019-04-27T11:59:49.094Z,1.20
2019-04-27T12:02:19.078Z,1.10
2019-04-27T12:04:47.489Z,1.00
2019-04-27T12:07:16.084Z,1.32
2019-04-27T12:09:46.224Z,1.20
2019-04-27T12:12:21.733Z,1.17
2019-04-27T12:14:56.030Z,1.20
2019-04-27T12:17:29.231Z,1.15
2019-04-27T12:19:57.689Z,1.00
2019-04-27T12:22:28.788Z,1.00
2019-04-27T12:24:57.234Z,0.98
2019-04-27T12:27:45.794Z,1.15
2019-04-27T12:30:17.393Z,1.02
2019-04-27T12:32:45.888Z,1.10
2019-04-27T12:35:14.346Z,0.85
2019-04-27T12:37:43.135Z,1.12
2019-04-27T12:40:11.822Z,1.07
2019-04-27T12:42:42.926Z,1.10
2019-04-27T12:45:11.532Z,1.10
2019-04-27T12:47:40.058Z,1.30
2019-04-27T12:50:13.325Z,1.02
2019-04-27T12:52:43.409Z,1.15
2019-04-27T12:55:17.062Z,1.10
2019-04-27T12:57:50.196Z,1.10
2019-04-27T13:00:23.666Z,1.12
2019-04-27T13:02:53.758Z,1.25
2019-04-27T13:05:22.267Z,1.30
2019-04-27T13:07:50.712Z,1.32
2019-04-27T13:10:19.501Z,1.30
2019-04-27T13:12:47.969Z,0.95
2019-04-27T13:15:17.241Z,1.00
2019-04-27T13:17:46.676Z,1.17
2019-04-27T13:20:17.221Z,1.07
2019-04-27T13:22:45.963Z,1.00
2019-04-27T13:25:17.063Z,1.00
2019-04-27T13:27:45.504Z,1.00
2019-04-27T13:30:16.316Z,0.90
2019-04-27T13:32:46.938Z,0.90
2019-04-27T13:35:16.858Z,0.90
2019-04-27T13:37:46.761Z,1.30
2019-04-27T13:40:17.199Z,1.17
2019-04-27T13:42:47.682Z,1.98
2019-04-27T13:45:20.957Z,1.17
2019-04-27T13:47:57.432Z,0.78
2019-04-27T13:50:27.529Z,0.90
2019-04-27T13:53:01.722Z,3.00
2019-04-27T13:55:33.079Z,0.93
2019-04-27T13:58:03.389Z,1.00
2019-04-27T14:00:37.777Z,0.88
2019-04-27T14:03:06.312Z,1.12
2019-04-27T14:05:34.743Z,1.10
2019-04-27T14:08:03.393Z,0.88
2019-04-27T14:10:32.956Z,0.95
2019-04-27T14:13:04.173Z,1.12
2019-04-27T14:15:32.646Z,6.55
2019-04-27T14:18:02.694Z,11.12
2019-04-27T14:20:34.170Z,11.80
2019-04-27T14:23:10.419Z,10.53
2019-04-27T14:25:39.812Z,10.05
2019-04-27T14:28:08.583Z,10.80
2019-04-27T14:30:38.121Z,9.98
2019-04-27T14:33:10.260Z,9.30
2019-04-27T14:35:39.992Z,9.25
2019-04-27T14:38:09.126Z,9.28
2019-04-27T14:40:39.243Z,9.60
2019-04-27T14:43:10.644Z,10.38
2019-04-27T14:45:40.103Z,9.80
2019-04-27T14:48:12.816Z,10.75
2019-04-27T14:50:50.641Z,9.40
2019-04-27T14:53:22.153Z,9.25
2019-04-27T14:55:54.204Z,9.65
2019-04-27T15:00:54.456Z,7.35
2019-04-27T15:03:22.898Z,8.05
2019-04-27T15:05:55.289Z,6.50
2019-04-27T15:08:28.458Z,6.30
2019-04-27T15:10:59.324Z,5.67
2019-04-27T15:13:27.935Z,5.60
2019-04-27T15:15:56.377Z,5.85
2019-04-27T15:18:26.535Z,5.47
2019-04-27T15:20:58.447Z,6.45
2019-04-27T15:23:26.579Z,6.53
2019-04-27T15:26:00.011Z,6.30
2019-04-27T15:28:31.957Z,6.50
2019-04-27T15:31:06.500Z,5.90
2019-04-27T15:33:54.671Z,6.17
2019-04-27T15:36:28.661Z,5.70
2019-04-27T15:38:59.747Z,6.40
2019-04-27T15:41:40.390Z,5.13
2019-04-27T15:44:09.549Z,5.78
2019-04-27T15:46:40.029Z,4.90
2019-04-27T15:49:11.241Z,5.35
2019-04-27T15:51:41.139Z,6.72
2019-04-27T15:54:09.674Z,5.80
2019-04-27T15:56:38.241Z,5.40
2019-04-27T15:59:08.136Z,4.97
2019-04-27T16:01:39.502Z,5.25
2019-04-27T16:04:18.423Z,5.87
2019-04-27T16:06:48.628Z,5.15
2019-04-27T16:09:24.222Z,5.33
2019-04-27T16:11:57.684Z,5.33
2019-04-27T16:14:19.334Z,5.70
2019-04-27T16:16:48.782Z,5.17
2019-04-27T16:19:18.409Z,5.10
2019-04-27T16:21:50.164Z,6.55
2019-04-27T16:24:21.258Z,5.60
2019-04-27T16:26:56.026Z,6.07
2019-04-27T16:29:38.902Z,5.58
2019-04-27T16:32:11.510Z,6.33
2019-04-27T16:37:13.904Z,6.60
2019-04-27T16:39:49.430Z,6.67
2019-04-27T16:42:18.614Z,6.50
2019-04-27T16:44:53.113Z,7.70
2019-04-27T16:47:24.488Z,7.00
2019-04-27T16:49:51.137Z,6.70
2019-04-27T16:52:23.391Z,7.37
2019-04-27T16:54:57.159Z,6.60
2019-04-27T16:57:23.597Z,6.00
2019-04-27T16:59:57.714Z,7.47
2019-04-27T17:02:25.150Z,6.50
2019-04-27T17:04:55.533Z,6.97
2019-04-27T17:07:22.504Z,7.67
2019-04-27T17:09:50.939Z,6.65
2019-04-27T17:12:23.712Z,6.65
2019-04-27T17:14:53.853Z,8.05
2019-04-27T17:17:23.893Z,7.62
2019-04-27T17:19:54.281Z,7.62
2019-04-27T17:22:22.763Z,7.28
2019-04-27T17:24:51.236Z,7.72
2019-04-27T17:27:28.634Z,8.40
2019-04-27T17:29:57.973Z,8.90
2019-04-27T17:32:33.479Z,8.08
2019-04-27T17:35:04.992Z,8.28
2019-04-27T17:37:33.769Z,8.90
2019-04-27T17:40:02.182Z,7.85
2019-04-27T17:42:31.047Z,8.60
2019-04-27T17:45:00.564Z,8.65
2019-04-27T17:47:30.043Z,8.60
2019-04-27T17:49:58.667Z,9.10
2019-04-27T17:52:27.076Z,9.98
2019-04-27T17:54:55.485Z,9.68
2019-04-27T17:57:26.466Z,10.53
2019-04-27T17:59:58.843Z,10.15
2019-04-27T18:02:24.245Z,10.43
2019-04-27T18:04:52.667Z,10.50
2019-04-27T18:07:21.086Z,9.98
2019-04-27T18:09:49.509Z,10.90
2019-04-27T18:12:20.038Z,8.73
2019-04-27T18:14:48.435Z,9.03
2019-04-27T18:17:19.682Z,8.93
2019-04-27T18:19:51.417Z,8.13
2019-04-27T18:22:20.168Z,8.48
2019-04-27T18:24:50.375Z,8.75
2019-04-27T18:27:26.325Z,8.90
2019-04-27T18:29:59.254Z,9.05
2019-04-27T18:32:27.728Z,9.08
2019-04-27T18:34:58.456Z,8.95
2019-04-27T18:37:28.278Z,9.70
2019-04-27T18:39:58.156Z,9.98
2019-04-27T18:42:28.059Z,9.80
2019-04-27T18:45:06.053Z,7.42
2019-04-27T18:47:31.210Z,7.08
2019-04-27T18:50:19.625Z,6.67
2019-04-27T18:52:50.290Z,6.97
2019-04-27T18:55:20.845Z,6.12
2019-04-27T18:57:51.040Z,6.10
2019-04-27T19:00:21.624Z,4.90
2019-04-27T19:02:50.502Z,5.25
2019-04-27T19:05:19.159Z,5.65
2019-04-27T19:07:48.447Z,7.30
2019-04-27T19:10:19.039Z,7.50
2019-04-27T19:12:48.390Z,9.23
2019-04-27T19:15:18.348Z,8.95
2019-04-27T19:17:48.741Z,10.03
2019-04-27T19:20:18.633Z,10.38
2019-04-27T19:22:49.010Z,11.33
2019-04-27T19:25:19.256Z,10.80
2019-04-27T19:28:06.120Z,11.93
2019-04-27T19:30:36.173Z,13.05
2019-04-27T19:33:07.649Z,12.88
2019-04-27T19:35:37.950Z,13.93
2019-04-27T19:38:08.176Z,14.18
2019-04-27T19:40:37.985Z,12.98
2019-04-27T19:43:06.475Z,12.73
2019-04-27T19:45:35.514Z,13.45
2019-04-27T19:48:03.961Z,13.35
2019-04-27T19:50:32.419Z,13.40
2019-04-27T19:53:00.808Z,13.88
2019-04-27T19:55:29.256Z,14.28
2019-04-27T19:57:59.439Z,13.58
2019-04-27T20:00:48.434Z,13.83
2019-04-27T20:03:19.299Z,12.73
2019-04-27T20:05:47.870Z,13.03
2019-04-27T20:08:23.590Z,14.13
2019-04-27T20:10:52.006Z,13.32
2019-04-27T20:13:21.982Z,13.87
2019-04-27T20:15:51.248Z,13.55
2019-04-27T20:18:22.195Z,13.13
2019-04-27T20:20:50.639Z,13.28
2019-04-27T20:23:22.273Z,14.75
2019-04-27T20:25:49.196Z,13.48
2019-04-27T20:28:17.621Z,14.80
2019-04-27T20:30:46.071Z,13.18
2019-04-27T20:33:14.521Z,12.50
2019-04-27T20:35:42.970Z,11.88
2019-04-27T20:38:13.004Z,11.22
2019-04-27T20:40:42.406Z,12.43
2019-04-27T20:43:10.867Z,10.80
2019-04-27T20:45:41.245Z,11.80
2019-04-27T20:48:11.189Z,11.80
2019-04-27T20:50:41.207Z,11.12
2019-04-27T20:53:12.649Z,13.15
2019-04-27T20:55:41.163Z,11.55
2019-04-27T20:58:10.915Z,12.05
2019-04-27T21:00:41.759Z,12.10
2019-04-27T21:03:12.496Z,12.35
2019-04-27T21:05:45.083Z,12.05
2019-04-27T21:08:15.196Z,11.43
2019-04-27T21:10:43.594Z,10.58
2019-04-27T21:13:15.044Z,9.95
2019-04-27T21:15:48.026Z,9.23
2019-04-27T21:18:16.819Z,9.78
2019-04-27T21:20:45.215Z,9.08
2019-04-27T21:23:13.627Z,9.03
2019-04-27T21:25:42.315Z,8.00
2019-04-27T21:28:16.397Z,9.35
2019-04-27T21:30:40.932Z,10.20
2019-04-27T21:33:11.323Z,10.00
2019-04-27T21:35:39.670Z,9.90
2019-04-27T21:38:08.090Z,8.48
2019-04-27T21:40:36.990Z,8.43
2019-04-27T21:43:06.551Z,8.68
2019-04-27T21:45:36.100Z,7.72
2019-04-27T21:48:04.580Z,6.20
2019-04-27T21:50:33.012Z,5.87
2019-04-27T21:53:15.360Z,5.60
2019-04-27T21:55:44.700Z,4.95
2019-04-27T21:58:14.135Z,5.15
2019-04-27T22:00:44.204Z,5.22
2019-04-27T22:03:16.967Z,4.92
2019-04-27T22:05:45.390Z,4.35
2019-04-27T22:08:13.810Z,4.28
2019-04-27T22:10:42.292Z,4.83
2019-04-27T22:13:10.737Z,4.08
2019-04-27T22:15:39.219Z,4.08
2019-04-27T22:18:07.811Z,4.85
2019-04-27T22:20:36.675Z,4.53
2019-04-27T22:23:13.083Z,4.60
2019-04-27T22:25:42.159Z,5.20
2019-04-27T22:28:11.756Z,4.67
2019-04-27T22:30:40.453Z,4.55
2019-04-27T22:33:08.880Z,4.72
2019-04-27T22:35:37.305Z,5.12
2019-04-27T22:38:05.730Z,5.20
2019-04-27T22:40:47.207Z,5.78
2019-04-27T22:43:35.042Z,4.97
2019-04-27T22:46:15.117Z,4.53
2019-04-27T22:48:43.545Z,5.72
2019-04-27T22:51:11.944Z,5.37
2019-04-27T22:53:41.065Z,5.92
2019-04-27T22:56:13.578Z,5.50
2019-04-27T22:58:43.077Z,6.58
2019-04-27T23:01:15.989Z,6.00
2019-04-27T23:03:46.044Z,5.97
2019-04-27T23:06:14.467Z,6.23
2019-04-27T23:08:42.904Z,5.85
2019-04-27T23:11:13.950Z,6.35
2019-04-27T23:13:42.366Z,7.00
2019-04-27T23:16:12.451Z,6.53
2019-04-27T23:18:41.361Z,6.78
2019-04-27T23:21:13.066Z,6.47
2019-04-27T23:23:41.318Z,6.72
2019-04-27T23:26:11.831Z,7.92
2019-04-27T23:28:42.554Z,7.60
2019-04-27T23:31:15.314Z,6.78
2019-04-27T23:33:46.499Z,7.95
2019-04-27T23:36:14.927Z,7.63
2019-04-27T23:38:43.333Z,9.33
2019-04-27T23:41:11.794Z,9.08
2019-04-27T23:43:41.198Z,9.05
2019-04-27T23:46:11.505Z,9.38
2019-04-27T23:48:41.845Z,10.08
2019-04-27T23:51:28.853Z,11.25
2019-04-27T23:53:57.343Z,10.45
2019-04-27T23:56:28.747Z,11.27
2019-04-27T23:58:57.191Z,10.63
